createdAt,value
2023-01-27T00:04:44.454Z,23.10
2023-01-27T00:12:39.095Z,22.42
2023-01-27T00:20:36.000Z,29.13
2023-01-27T00:28:09.907Z,24.20
2023-01-27T00:35:45.119Z,23.15
2023-01-27T00:43:18.893Z,26.65
2023-01-27T00:50:55.059Z,21.98
2023-01-27T00:58:29.666Z,27.90
2023-01-27T01:06:07.601Z,31.15
2023-01-27T01:13:42.232Z,29.17
2023-01-27T01:21:18.117Z,25.60
2023-01-27T01:28:52.134Z,24.52
2023-01-27T01:36:27.430Z,20.55
2023-01-27T01:44:26.778Z,23.25
2023-01-27T01:52:05.480Z,16.20
2023-01-27T01:59:45.670Z,20.75
2023-01-27T02:07:27.460Z,19.80
2023-01-27T02:15:01.741Z,20.15
2023-01-27T02:22:42.857Z,20.02
2023-01-27T02:30:18.734Z,20.67
2023-01-27T02:37:53.328Z,19.73
2023-01-27T02:45:29.131Z,18.38
2023-01-27T02:53:02.912Z,21.08
2023-01-27T03:00:38.088Z,19.35
2023-01-27T03:08:12.002Z,20.77
2023-01-27T03:16:04.466Z,16.48
2023-01-27T03:23:38.467Z,17.63
2023-01-27T03:31:20.121Z,11.65
2023-01-27T03:39:11.518Z,18.67
2023-01-27T03:46:46.900Z,17.00
2023-01-27T03:54:20.935Z,17.58
2023-01-27T04:02:13.724Z,14.02
2023-01-27T04:09:47.751Z,17.27
2023-01-27T04:17:22.941Z,20.27
2023-01-27T04:24:56.998Z,17.95
2023-01-27T04:32:32.243Z,14.10
2023-01-27T04:40:07.626Z,15.20
2023-01-27T04:47:42.791Z,16.88
2023-01-27T04:55:16.796Z,19.48
2023-01-27T05:02:52.114Z,18.83
2023-01-27T05:10:26.252Z,18.10
2023-01-27T05:25:37.441Z,17.17
2023-01-27T05:33:13.941Z,18.83
2023-01-27T05:40:47.753Z,14.93
2023-01-27T05:48:23.061Z,24.48
2023-01-27T05:55:58.969Z,16.67
2023-01-27T06:03:34.192Z,19.13
2023-01-27T06:11:09.294Z,16.17
2023-01-27T06:18:45.113Z,15.95
2023-01-27T06:26:20.734Z,17.48
2023-01-27T06:33:56.049Z,18.42
2023-01-27T06:41:30.147Z,17.35
2023-01-27T06:49:05.383Z,17.08
2023-01-27T06:56:39.742Z,15.27
2023-01-27T07:04:15.101Z,17.98
2023-01-27T07:11:48.914Z,13.38
2023-01-27T07:19:24.699Z,16.35
2023-01-27T07:27:01.958Z,17.42
2023-01-27T07:34:37.226Z,15.50
2023-01-27T07:42:11.405Z,11.25
2023-01-27T07:57:20.909Z,14.65
2023-01-27T08:04:56.184Z,13.35
2023-01-27T08:12:30.185Z,19.40
2023-01-27T08:20:08.247Z,13.70
2023-01-27T08:27:42.616Z,18.02
2023-01-27T08:35:18.200Z,18.85
2023-01-27T08:42:52.135Z,15.98
2023-01-27T08:50:27.789Z,22.63
2023-01-27T08:58:02.535Z,14.98
2023-01-27T09:05:38.467Z,13.52
2023-01-27T09:13:12.330Z,20.08
2023-01-27T09:20:47.557Z,16.42
2023-01-27T09:28:21.824Z,13.82
2023-01-27T09:36:00.966Z,16.17
2023-01-27T09:44:05.458Z,13.27
2023-01-27T09:51:52.786Z,15.30
2023-01-27T09:59:45.417Z,10.18
2023-01-27T10:07:39.820Z,12.32
2023-01-27T10:15:29.691Z,14.23
2023-01-27T10:23:18.215Z,11.60
2023-01-27T10:31:00.990Z,13.07
2023-01-27T10:38:44.876Z,16.80
2023-01-27T10:46:30.717Z,11.50
2023-01-27T10:54:11.993Z,12.75
2023-01-27T11:01:51.329Z,12.93
2023-01-27T11:09:31.213Z,10.45
2023-01-27T11:17:16.571Z,11.10
2023-01-27T11:24:58.851Z,11.60
2023-01-27T11:32:42.966Z,18.13
2023-01-27T11:40:28.460Z,8.80
2023-01-27T11:48:04.023Z,10.77
2023-01-27T11:55:43.772Z,9.73
2023-01-27T12:03:23.893Z,13.52
2023-01-27T12:11:18.474Z,8.93
2023-01-27T12:19:01.508Z,9.73
2023-01-27T12:26:39.794Z,7.72
2023-01-27T12:34:25.605Z,10.82
2023-01-27T12:42:00.819Z,12.40
2023-01-27T12:49:37.940Z,14.95
2023-01-27T12:57:18.677Z,16.17
2023-01-27T13:04:55.438Z,12.38
2023-01-27T13:12:32.546Z,15.68
2023-01-27T13:20:16.898Z,8.27
2023-01-27T13:27:57.742Z,9.93
2023-01-27T13:35:36.084Z,10.48
2023-01-27T13:43:15.288Z,12.15
2023-01-27T13:50:54.142Z,14.00
2023-01-27T13:58:44.459Z,10.23
2023-01-27T14:06:39.029Z,8.10
2023-01-27T14:14:57.496Z,10.17
2023-01-27T14:22:41.851Z,7.40
2023-01-27T14:30:25.278Z,6.13
2023-01-27T14:38:11.733Z,5.30
2023-01-27T14:45:49.199Z,10.20
2023-01-27T14:53:50.497Z,6.15
2023-01-27T15:01:33.757Z,6.65
2023-01-27T15:09:22.818Z,5.35
2023-01-27T15:17:14.939Z,14.63
2023-01-27T15:24:58.724Z,9.38
2023-01-27T15:32:37.573Z,13.95
2023-01-27T15:40:17.796Z,9.07
2023-01-27T15:47:59.978Z,7.82
2023-01-27T15:55:38.331Z,8.00
2023-01-27T16:03:22.347Z,5.50
2023-01-27T16:11:24.635Z,8.80
2023-01-27T16:19:06.127Z,7.68
2023-01-27T16:26:47.628Z,7.72
2023-01-27T16:34:26.074Z,7.95
2023-01-27T16:42:04.563Z,6.47
2023-01-27T16:49:42.080Z,23.50
2023-01-27T16:57:30.020Z,11.07
2023-01-27T17:05:14.405Z,8.35
2023-01-27T17:12:51.732Z,13.02
2023-01-27T17:20:29.718Z,10.25
2023-01-27T17:28:13.183Z,6.65
2023-01-27T17:35:52.332Z,10.82
2023-01-27T17:43:31.908Z,10.73
2023-01-27T17:51:06.265Z,14.73
2023-01-27T17:58:46.005Z,11.02
2023-01-27T18:06:23.391Z,25.77
2023-01-27T18:14:01.558Z,5.75
2023-01-27T18:21:36.730Z,7.60
2023-01-27T18:29:21.010Z,8.57
2023-01-27T18:36:57.283Z,23.60
2023-01-27T18:44:35.939Z,28.52
2023-01-27T18:52:12.584Z,15.98
2023-01-27T18:59:47.875Z,5.20
2023-01-27T19:07:21.647Z,8.10
2023-01-27T19:14:56.787Z,13.17
2023-01-27T19:22:31.884Z,7.32
2023-01-27T19:30:23.571Z,8.95
2023-01-27T19:37:59.454Z,12.88
2023-01-27T19:45:34.604Z,11.95
2023-01-27T19:53:09.303Z,20.88
2023-01-27T20:00:44.526Z,10.50
2023-01-27T20:08:20.301Z,10.63
2023-01-27T20:15:58.271Z,30.73
2023-01-27T20:23:32.115Z,18.77
2023-01-27T20:31:12.954Z,24.98
2023-01-27T20:38:47.221Z,19.58
2023-01-27T20:53:57.765Z,8.55
2023-01-27T21:01:33.477Z,9.52
2023-01-27T21:09:07.330Z,13.18
2023-01-27T21:16:42.469Z,9.57
2023-01-27T21:24:16.314Z,6.22
2023-01-27T21:31:52.839Z,4.65
2023-01-27T21:39:26.798Z,6.00
2023-01-27T21:47:02.231Z,7.90
2023-01-27T21:54:36.024Z,4.85
2023-01-27T22:02:12.344Z,4.17
2023-01-27T22:09:46.632Z,3.95
2023-01-27T22:24:55.254Z,5.80
2023-01-27T22:32:31.153Z,4.30
2023-01-27T22:40:06.546Z,4.88
2023-01-27T22:47:42.099Z,4.45
2023-01-27T22:55:16.503Z,2.22
2023-01-27T23:02:51.788Z,5.03
2023-01-27T23:10:25.551Z,5.25
2023-01-27T23:18:00.706Z,4.30
2023-01-27T23:25:35.609Z,6.03
2023-01-27T23:33:11.196Z,5.60
2023-01-27T23:40:44.906Z,7.45
2023-01-27T23:48:20.316Z,5.27
2023-01-27T23:55:58.229Z,6.60
